sensor_id;sensor_type;location;lat;lon;timestamp;P1;durP1;ratioP1;P2;durP2;ratioP2
74614;SDS011;63121;51.458;-0.110;2023-03-01T00:01:05;10.38;;;3.67;;
74614;SDS011;63121;51.458;-0.110;2023-03-01T00:03:32;9.10;;;3.45;;
74614;SDS011;63121;51.458;-0.110;2023-03-01T00:05:58;11.30;;;4.10;;
74614;SDS011;63121;51.458;-0.110;2023-03-01T00:08:24;9.25;;;3.92;;
74614;SDS011;63121;51.458;-0.110;2023-03-01T00:10:59;8.73;;;3.58;;
74614;SDS011;63121;51.458;-0.110;2023-03-01T00:13:26;8.20;;;3.30;;
74614;SDS011;63121;51.458;-0.110;2023-03-01T00:15:51;10.10;;;3.80;;
74614;SDS011;63121;51.458;-0.110;2023-03-01T00:18:19;9.43;;;3.63;;
74614;SDS011;63121;51.458;-0.110;2023-03-01T00:20:51;11.10;;;3.55;;
74614;SDS011;63121;51.458;-0.110;2023-03-01T00:23:18;9.98;;;3.33;;
74614;SDS011;63121;51.458;-0.110;2023-03-01T00:25:44;9.13;;;3.40;;
74614;SDS011;63121;51.458;-0.110;2023-03-01T00:28:09;9.00;;;3.47;;
74614;SDS011;63121;51.458;-0.110;2023-03-01T00:30:35;9.10;;;3.33;;
74614;SDS011;63121;51.458;-0.110;2023-03-01T00:33:00;10.90;;;3.47;;
74614;SDS011;63121;51.458;-0.110;2023-03-01T00:35:26;10.00;;;3.83;;
74614;SDS011;63121;51.458;-0.110;2023-03-01T00:37:51;8.77;;;3.40;;
74614;SDS011;63121;51.458;-0.110;2023-03-01T00:40:23;9.90;;;3.90;;
74614;SDS011;63121;51.458;-0.110;2023-03-01T00:42:49;11.32;;;3.50;;
74614;SDS011;63121;51.458;-0.110;2023-03-01T00:45:14;9.23;;;3.33;;
74614;SDS011;63121;51.458;-0.110;2023-03-01T00:47:40;9.65;;;3.30;;
74614;SDS011;63121;51.458;-0.110;2023-03-01T00:50:05;10.23;;;3.40;;
74614;SDS011;63121;51.458;-0.110;2023-03-01T00:52:31;10.95;;;3.83;;
74614;SDS011;63121;51.458;-0.110;2023-03-01T00:54:56;10.52;;;3.60;;
74614;SDS011;63121;51.458;-0.110;2023-03-01T00:57:22;10.40;;;3.47;;
74614;SDS011;63121;51.458;-0.110;2023-03-01T00:59:48;9.77;;;3.70;;
74614;SDS011;63121;51.458;-0.110;2023-03-01T01:02:13;11.73;;;3.80;;
74614;SDS011;63121;51.458;-0.110;2023-03-01T01:04:39;7.85;;;3.05;;
74614;SDS011;63121;51.458;-0.110;2023-03-01T01:07:04;9.17;;;3.50;;
74614;SDS011;63121;51.458;-0.110;2023-03-01T01:09:30;8.40;;;3.47;;
74614;SDS011;63121;51.458;-0.110;2023-03-01T01:11:55;9.35;;;3.72;;
74614;SDS011;63121;51.458;-0.110;2023-03-01T01:14:21;10.50;;;3.28;;
74614;SDS011;63121;51.458;-0.110;2023-03-01T01:16:46;11.75;;;3.38;;
74614;SDS011;63121;51.458;-0.110;2023-03-01T01:19:12;9.38;;;3.50;;
74614;SDS011;63121;51.458;-0.110;2023-03-01T01:21:38;9.18;;;3.15;;
74614;SDS011;63121;51.458;-0.110;2023-03-01T01:24:04;8.50;;;3.25;;
74614;SDS011;63121;51.458;-0.110;2023-03-01T01:26:31;9.00;;;3.10;;
74614;SDS011;63121;51.458;-0.110;2023-03-01T01:28:58;8.63;;;3.42;;
74614;SDS011;63121;51.458;-0.110;2023-03-01T01:31:24;7.15;;;2.80;;
74614;SDS011;63121;51.458;-0.110;2023-03-01T01:33:51;8.27;;;2.30;;
74614;SDS011;63121;51.458;-0.110;2023-03-01T01:36:17;7.43;;;2.05;;
74614;SDS011;63121;51.458;-0.110;2023-03-01T01:38:42;6.10;;;2.05;;
74614;SDS011;63121;51.458;-0.110;2023-03-01T01:41:08;8.52;;;2.25;;
74614;SDS011;63121;51.458;-0.110;2023-03-01T01:43:43;6.97;;;1.60;;
74614;SDS011;63121;51.458;-0.110;2023-03-01T01:48:43;4.03;;;1.80;;
74614;SDS011;63121;51.458;-0.110;2023-03-01T01:51:17;6.07;;;1.60;;
74614;SDS011;63121;51.458;-0.110;2023-03-01T01:53:47;7.82;;;2.03;;
74614;SDS011;63121;51.458;-0.110;2023-03-01T01:56:16;4.55;;;1.48;;
74614;SDS011;63121;51.458;-0.110;2023-03-01T02:01:09;5.72;;;1.60;;
74614;SDS011;63121;51.458;-0.110;2023-03-01T02:03:36;6.13;;;1.90;;
74614;SDS011;63121;51.458;-0.110;2023-03-01T02:06:11;8.10;;;2.08;;
74614;SDS011;63121;51.458;-0.110;2023-03-01T02:08:42;7.88;;;1.90;;
74614;SDS011;63121;51.458;-0.110;2023-03-01T02:11:10;5.72;;;1.80;;
74614;SDS011;63121;51.458;-0.110;2023-03-01T02:13:39;7.95;;;1.90;;
74614;SDS011;63121;51.458;-0.110;2023-03-01T02:16:08;5.80;;;1.50;;
74614;SDS011;63121;51.458;-0.110;2023-03-01T02:18:35;7.18;;;1.70;;
74614;SDS011;63121;51.458;-0.110;2023-03-01T02:27:05;6.70;;;1.63;;
74614;SDS011;63121;51.458;-0.110;2023-03-01T02:29:31;7.57;;;1.80;;
74614;SDS011;63121;51.458;-0.110;2023-03-01T02:31:58;3.97;;;1.30;;
74614;SDS011;63121;51.458;-0.110;2023-03-01T02:34:27;4.18;;;1.45;;
74614;SDS011;63121;51.458;-0.110;2023-03-01T02:39:26;6.35;;;1.73;;
74614;SDS011;63121;51.458;-0.110;2023-03-01T02:41:55;5.22;;;1.63;;
74614;SDS011;63121;51.458;-0.110;2023-03-01T02:44:23;5.22;;;1.70;;
74614;SDS011;63121;51.458;-0.110;2023-03-01T02:46:50;5.45;;;1.35;;
74614;SDS011;63121;51.458;-0.110;2023-03-01T02:49:18;7.30;;;1.77;;
74614;SDS011;63121;51.458;-0.110;2023-03-01T02:57:10;4.45;;;1.50;;
74614;SDS011;63121;51.458;-0.110;2023-03-01T02:59:36;5.50;;;1.80;;
74614;SDS011;63121;51.458;-0.110;2023-03-01T03:02:29;6.97;;;1.65;;
74614;SDS011;63121;51.458;-0.110;2023-03-01T03:07:38;5.40;;;1.50;;
74614;SDS011;63121;51.458;-0.110;2023-03-01T03:10:06;5.20;;;1.50;;
74614;SDS011;63121;51.458;-0.110;2023-03-01T03:12:33;6.07;;;1.52;;
74614;SDS011;63121;51.458;-0.110;2023-03-01T03:14:59;4.40;;;0.98;;
74614;SDS011;63121;51.458;-0.110;2023-03-01T03:17:24;5.05;;;1.48;;
74614;SDS011;63121;51.458;-0.110;2023-03-01T03:19:50;4.03;;;1.27;;
74614;SDS011;63121;51.458;-0.110;2023-03-01T03:22:15;5.55;;;1.30;;
74614;SDS011;63121;51.458;-0.110;2023-03-01T03:24:41;5.00;;;1.67;;
74614;SDS011;63121;51.458;-0.110;2023-03-01T03:27:06;4.60;;;1.33;;
74614;SDS011;63121;51.458;-0.110;2023-03-01T03:29:32;6.50;;;1.67;;
74614;SDS011;63121;51.458;-0.110;2023-03-01T03:31:58;5.75;;;1.50;;
74614;SDS011;63121;51.458;-0.110;2023-03-01T03:34:24;4.85;;;1.48;;
74614;SDS011;63121;51.458;-0.110;2023-03-01T03:36:53;4.65;;;1.50;;
74614;SDS011;63121;51.458;-0.110;2023-03-01T03:39:22;3.35;;;1.30;;
74614;SDS011;63121;51.458;-0.110;2023-03-01T03:41:48;4.38;;;1.63;;
74614;SDS011;63121;51.458;-0.110;2023-03-01T03:44:13;4.70;;;1.30;;
74614;SDS011;63121;51.458;-0.110;2023-03-01T03:46:39;4.72;;;1.38;;
74614;SDS011;63121;51.458;-0.110;2023-03-01T03:49:04;6.67;;;1.40;;
74614;SDS011;63121;51.458;-0.110;2023-03-01T03:51:29;3.80;;;1.20;;
74614;SDS011;63121;51.458;-0.110;2023-03-01T03:53:54;4.27;;;1.33;;
74614;SDS011;63121;51.458;-0.110;2023-03-01T03:56:20;4.47;;;1.20;;
74614;SDS011;63121;51.458;-0.110;2023-03-01T03:58:45;4.90;;;1.40;;
74614;SDS011;63121;51.458;-0.110;2023-03-01T04:01:11;5.97;;;1.40;;
74614;SDS011;63121;51.458;-0.110;2023-03-01T04:03:36;4.80;;;1.40;;
74614;SDS011;63121;51.458;-0.110;2023-03-01T04:06:02;4.78;;;1.40;;
74614;SDS011;63121;51.458;-0.110;2023-03-01T04:08:29;5.07;;;1.27;;
74614;SDS011;63121;51.458;-0.110;2023-03-01T04:11:01;4.38;;;1.27;;
74614;SDS011;63121;51.458;-0.110;2023-03-01T04:13:48;3.95;;;1.20;;
74614;SDS011;63121;51.458;-0.110;2023-03-01T04:16:14;3.05;;;1.20;;
74614;SDS011;63121;51.458;-0.110;2023-03-01T04:18:39;1.65;;;0.90;;
74614;SDS011;63121;51.458;-0.110;2023-03-01T04:21:04;6.20;;;1.27;;
74614;SDS011;63121;51.458;-0.110;2023-03-01T04:23:30;2.15;;;1.00;;
74614;SDS011;63121;51.458;-0.110;2023-03-01T04:25:56;2.03;;;0.82;;
74614;SDS011;63121;51.458;-0.110;2023-03-01T04:28:30;2.85;;;1.00;;
74614;SDS011;63121;51.458;-0.110;2023-03-01T04:31:05;3.50;;;1.27;;
74614;SDS011;63121;51.458;-0.110;2023-03-01T04:33:37;2.47;;;0.80;;
74614;SDS011;63121;51.458;-0.110;2023-03-01T04:36:04;5.13;;;1.20;;
74614;SDS011;63121;51.458;-0.110;2023-03-01T04:38:30;6.22;;;1.02;;
74614;SDS011;63121;51.458;-0.110;2023-03-01T04:40:55;2.80;;;0.93;;
74614;SDS011;63121;51.458;-0.110;2023-03-01T04:43:21;2.70;;;0.97;;
74614;SDS011;63121;51.458;-0.110;2023-03-01T04:45:46;4.60;;;1.10;;
74614;SDS011;63121;51.458;-0.110;2023-03-01T04:48:11;2.60;;;1.00;;
74614;SDS011;63121;51.458;-0.110;2023-03-01T04:50:37;3.77;;;1.00;;
74614;SDS011;63121;51.458;-0.110;2023-03-01T04:53:02;4.57;;;1.20;;
74614;SDS011;63121;51.458;-0.110;2023-03-01T04:55:28;1.10;;;0.50;;
74614;SDS011;63121;51.458;-0.110;2023-03-01T04:57:54;2.28;;;1.00;;
74614;SDS011;63121;51.458;-0.110;2023-03-01T05:00:20;3.70;;;1.08;;
74614;SDS011;63121;51.458;-0.110;2023-03-01T05:02:51;2.58;;;1.00;;
74614;SDS011;63121;51.458;-0.110;2023-03-01T05:05:39;3.55;;;1.10;;
74614;SDS011;63121;51.458;-0.110;2023-03-01T05:08:07;1.80;;;0.85;;
74614;SDS011;63121;51.458;-0.110;2023-03-01T05:10:33;2.58;;;1.35;;
74614;SDS011;63121;51.458;-0.110;2023-03-01T05:13:01;2.15;;;0.90;;
74614;SDS011;63121;51.458;-0.110;2023-03-01T05:15:30;3.92;;;1.08;;
74614;SDS011;63121;51.458;-0.110;2023-03-01T05:17:56;3.05;;;1.05;;
74614;SDS011;63121;51.458;-0.110;2023-03-01T05:20:24;4.07;;;1.00;;
74614;SDS011;63121;51.458;-0.110;2023-03-01T05:22:50;4.00;;;0.95;;
74614;SDS011;63121;51.458;-0.110;2023-03-01T05:25:17;2.30;;;0.93;;
74614;SDS011;63121;51.458;-0.110;2023-03-01T05:27:43;2.58;;;0.88;;
74614;SDS011;63121;51.458;-0.110;2023-03-01T05:30:09;2.20;;;0.80;;
74614;SDS011;63121;51.458;-0.110;2023-03-01T05:32:41;3.20;;;1.10;;
74614;SDS011;63121;51.458;-0.110;2023-03-01T05:35:11;3.20;;;1.05;;
74614;SDS011;63121;51.458;-0.110;2023-03-01T05:37:45;3.13;;;1.00;;
74614;SDS011;63121;51.458;-0.110;2023-03-01T05:40:14;2.80;;;1.20;;
74614;SDS011;63121;51.458;-0.110;2023-03-01T05:43:15;3.55;;;1.02;;
74614;SDS011;63121;51.458;-0.110;2023-03-01T05:45:33;1.60;;;0.75;;
74614;SDS011;63121;51.458;-0.110;2023-03-01T05:48:01;3.17;;;1.00;;
74614;SDS011;63121;51.458;-0.110;2023-03-01T05:50:28;3.00;;;1.30;;
74614;SDS011;63121;51.458;-0.110;2023-03-01T05:52:58;3.38;;;1.00;;
74614;SDS011;63121;51.458;-0.110;2023-03-01T05:55:26;2.92;;;0.88;;
74614;SDS011;63121;51.458;-0.110;2023-03-01T05:57:53;3.38;;;1.13;;
74614;SDS011;63121;51.458;-0.110;2023-03-01T06:00:19;4.55;;;1.10;;
74614;SDS011;63121;51.458;-0.110;2023-03-01T06:02:48;2.78;;;0.90;;
74614;SDS011;63121;51.458;-0.110;2023-03-01T06:05:14;6.07;;;1.23;;
74614;SDS011;63121;51.458;-0.110;2023-03-01T06:07:40;1.90;;;0.70;;
74614;SDS011;63121;51.458;-0.110;2023-03-01T06:10:06;5.93;;;1.23;;
74614;SDS011;63121;51.458;-0.110;2023-03-01T06:12:35;3.75;;;1.10;;
74614;SDS011;63121;51.458;-0.110;2023-03-01T06:17:31;3.10;;;1.00;;
74614;SDS011;63121;51.458;-0.110;2023-03-01T06:20:02;3.28;;;0.90;;
74614;SDS011;63121;51.458;-0.110;2023-03-01T06:22:35;3.53;;;0.90;;
74614;SDS011;63121;51.458;-0.110;2023-03-01T06:25:01;3.05;;;0.98;;
74614;SDS011;63121;51.458;-0.110;2023-03-01T06:27:27;4.10;;;1.15;;
74614;SDS011;63121;51.458;-0.110;2023-03-01T06:29:52;5.10;;;1.10;;
74614;SDS011;63121;51.458;-0.110;2023-03-01T06:32:18;4.00;;;1.30;;
74614;SDS011;63121;51.458;-0.110;2023-03-01T06:34:43;3.10;;;1.08;;
74614;SDS011;63121;51.458;-0.110;2023-03-01T06:37:09;4.20;;;1.10;;
74614;SDS011;63121;51.458;-0.110;2023-03-01T06:39:34;2.90;;;1.05;;
74614;SDS011;63121;51.458;-0.110;2023-03-01T06:42:00;6.00;;;1.63;;
74614;SDS011;63121;51.458;-0.110;2023-03-01T06:44:25;3.67;;;1.17;;
74614;SDS011;63121;51.458;-0.110;2023-03-01T06:46:51;3.67;;;1.20;;
74614;SDS011;63121;51.458;-0.110;2023-03-01T06:49:16;3.63;;;1.10;;
74614;SDS011;63121;51.458;-0.110;2023-03-01T06:51:43;4.63;;;1.05;;
74614;SDS011;63121;51.458;-0.110;2023-03-01T06:54:08;3.63;;;1.10;;
74614;SDS011;63121;51.458;-0.110;2023-03-01T06:56:34;3.40;;;0.88;;
74614;SDS011;63121;51.458;-0.110;2023-03-01T06:59:00;2.40;;;0.77;;
74614;SDS011;63121;51.458;-0.110;2023-03-01T07:01:25;3.38;;;1.10;;
74614;SDS011;63121;51.458;-0.110;2023-03-01T07:03:51;4.40;;;1.33;;
74614;SDS011;63121;51.458;-0.110;2023-03-01T07:06:16;4.93;;;1.25;;
74614;SDS011;63121;51.458;-0.110;2023-03-01T07:08:42;3.47;;;1.08;;
74614;SDS011;63121;51.458;-0.110;2023-03-01T07:11:07;3.10;;;1.20;;
74614;SDS011;63121;51.458;-0.110;2023-03-01T07:13:33;4.00;;;1.07;;
74614;SDS011;63121;51.458;-0.110;2023-03-01T07:15:58;4.27;;;1.10;;
74614;SDS011;63121;51.458;-0.110;2023-03-01T07:18:23;4.87;;;1.33;;
74614;SDS011;63121;51.458;-0.110;2023-03-01T07:20:49;3.75;;;1.02;;
74614;SDS011;63121;51.458;-0.110;2023-03-01T07:23:14;3.28;;;0.88;;
74614;SDS011;63121;51.458;-0.110;2023-03-01T07:25:40;2.70;;;1.08;;
74614;SDS011;63121;51.458;-0.110;2023-03-01T07:28:06;4.45;;;1.30;;
74614;SDS011;63121;51.458;-0.110;2023-03-01T07:30:31;6.23;;;1.63;;
74614;SDS011;63121;51.458;-0.110;2023-03-01T07:32:57;4.85;;;1.65;;
74614;SDS011;63121;51.458;-0.110;2023-03-01T07:35:24;3.35;;;1.30;;
74614;SDS011;63121;51.458;-0.110;2023-03-01T07:37:51;2.53;;;1.08;;
74614;SDS011;63121;51.458;-0.110;2023-03-01T07:40:17;4.75;;;1.30;;
74614;SDS011;63121;51.458;-0.110;2023-03-01T07:42:42;5.15;;;1.10;;
74614;SDS011;63121;51.458;-0.110;2023-03-01T07:45:08;4.72;;;1.40;;
74614;SDS011;63121;51.458;-0.110;2023-03-01T07:47:33;4.35;;;1.40;;
74614;SDS011;63121;51.458;-0.110;2023-03-01T07:49:59;3.53;;;1.13;;
74614;SDS011;63121;51.458;-0.110;2023-03-01T07:52:26;1.55;;;0.88;;
74614;SDS011;63121;51.458;-0.110;2023-03-01T07:54:51;2.67;;;1.00;;
74614;SDS011;63121;51.458;-0.110;2023-03-01T07:57:17;5.07;;;1.30;;
74614;SDS011;63121;51.458;-0.110;2023-03-01T07:59:42;2.90;;;1.00;;
74614;SDS011;63121;51.458;-0.110;2023-03-01T08:02:08;3.67;;;1.13;;
74614;SDS011;63121;51.458;-0.110;2023-03-01T08:04:34;1.92;;;0.75;;
74614;SDS011;63121;51.458;-0.110;2023-03-01T08:06:59;3.40;;;0.95;;
74614;SDS011;63121;51.458;-0.110;2023-03-01T08:09:25;3.53;;;1.10;;
74614;SDS011;63121;51.458;-0.110;2023-03-01T08:11:50;3.78;;;1.05;;
74614;SDS011;63121;51.458;-0.110;2023-03-01T08:14:16;4.57;;;1.10;;
74614;SDS011;63121;51.458;-0.110;2023-03-01T08:16:41;3.42;;;1.17;;
74614;SDS011;63121;51.458;-0.110;2023-03-01T08:19:08;4.28;;;1.10;;
74614;SDS011;63121;51.458;-0.110;2023-03-01T08:21:35;3.15;;;0.90;;
74614;SDS011;63121;51.458;-0.110;2023-03-01T08:24:01;5.72;;;1.08;;
74614;SDS011;63121;51.458;-0.110;2023-03-01T08:26:27;3.70;;;1.27;;
74614;SDS011;63121;51.458;-0.110;2023-03-01T08:28:53;3.55;;;1.13;;
74614;SDS011;63121;51.458;-0.110;2023-03-01T08:31:19;4.65;;;1.20;;
74614;SDS011;63121;51.458;-0.110;2023-03-01T08:33:45;3.03;;;1.10;;
74614;SDS011;63121;51.458;-0.110;2023-03-01T08:36:19;3.20;;;1.10;;
74614;SDS011;63121;51.458;-0.110;2023-03-01T08:38:46;4.43;;;1.23;;
74614;SDS011;63121;51.458;-0.110;2023-03-01T08:41:11;4.18;;;1.25;;
74614;SDS011;63121;51.458;-0.110;2023-03-01T08:43:37;5.10;;;1.23;;
74614;SDS011;63121;51.458;-0.110;2023-03-01T08:46:02;5.40;;;0.93;;
74614;SDS011;63121;51.458;-0.110;2023-03-01T08:48:28;3.92;;;1.20;;
74614;SDS011;63121;51.458;-0.110;2023-03-01T08:50:53;4.10;;;1.10;;
74614;SDS011;63121;51.458;-0.110;2023-03-01T08:53:19;2.88;;;0.85;;
74614;SDS011;63121;51.458;-0.110;2023-03-01T08:55:44;5.53;;;1.10;;
74614;SDS011;63121;51.458;-0.110;2023-03-01T08:58:09;3.45;;;1.30;;
74614;SDS011;63121;51.458;-0.110;2023-03-01T09:00:35;4.87;;;1.13;;
74614;SDS011;63121;51.458;-0.110;2023-03-01T09:03:00;3.75;;;1.17;;
74614;SDS011;63121;51.458;-0.110;2023-03-01T09:05:26;3.67;;;1.13;;
74614;SDS011;63121;51.458;-0.110;2023-03-01T09:07:51;3.80;;;1.15;;
74614;SDS011;63121;51.458;-0.110;2023-03-01T09:10:17;3.73;;;1.10;;
74614;SDS011;63121;51.458;-0.110;2023-03-01T09:12:42;4.85;;;1.25;;
74614;SDS011;63121;51.458;-0.110;2023-03-01T09:15:08;5.00;;;1.50;;
74614;SDS011;63121;51.458;-0.110;2023-03-01T09:17:33;5.10;;;1.30;;
74614;SDS011;63121;51.458;-0.110;2023-03-01T09:19:59;6.97;;;1.30;;
74614;SDS011;63121;51.458;-0.110;2023-03-01T09:22:24;4.47;;;1.13;;
74614;SDS011;63121;51.458;-0.110;2023-03-01T09:24:50;4.93;;;1.27;;
74614;SDS011;63121;51.458;-0.110;2023-03-01T09:27:15;2.27;;;1.03;;
74614;SDS011;63121;51.458;-0.110;2023-03-01T09:29:43;5.90;;;1.50;;
74614;SDS011;63121;51.458;-0.110;2023-03-01T09:32:09;5.75;;;1.30;;
74614;SDS011;63121;51.458;-0.110;2023-03-01T09:34:35;4.50;;;1.42;;
74614;SDS011;63121;51.458;-0.110;2023-03-01T09:37:20;4.15;;;1.25;;
74614;SDS011;63121;51.458;-0.110;2023-03-01T09:39:46;4.25;;;1.48;;
74614;SDS011;63121;51.458;-0.110;2023-03-01T09:42:11;4.87;;;1.30;;
74614;SDS011;63121;51.458;-0.110;2023-03-01T09:47:12;3.60;;;1.38;;
74614;SDS011;63121;51.458;-0.110;2023-03-01T09:49:55;5.65;;;1.13;;
74614;SDS011;63121;51.458;-0.110;2023-03-01T09:55:07;2.20;;;1.02;;
74614;SDS011;63121;51.458;-0.110;2023-03-01T10:03:04;3.80;;;1.23;;
74614;SDS011;63121;51.458;-0.110;2023-03-01T10:05:55;4.00;;;1.65;;
74614;SDS011;63121;51.458;-0.110;2023-03-01T10:08:30;2.28;;;0.80;;
74614;SDS011;63121;51.458;-0.110;2023-03-01T10:11:20;2.78;;;0.90;;
74614;SDS011;63121;51.458;-0.110;2023-03-01T10:19:05;4.03;;;1.10;;
74614;SDS011;63121;51.458;-0.110;2023-03-01T10:21:40;2.83;;;1.13;;
74614;SDS011;63121;51.458;-0.110;2023-03-01T10:24:13;3.80;;;1.08;;
74614;SDS011;63121;51.458;-0.110;2023-03-01T10:29:12;2.17;;;0.90;;
74614;SDS011;63121;51.458;-0.110;2023-03-01T10:31:51;2.25;;;0.88;;
74614;SDS011;63121;51.458;-0.110;2023-03-01T10:34:20;2.50;;;0.77;;
74614;SDS011;63121;51.458;-0.110;2023-03-01T10:39:36;2.15;;;0.73;;
74614;SDS011;63121;51.458;-0.110;2023-03-01T10:42:05;3.38;;;0.80;;
74614;SDS011;63121;51.458;-0.110;2023-03-01T10:44:47;1.95;;;0.75;;
74614;SDS011;63121;51.458;-0.110;2023-03-01T10:47:21;2.28;;;0.50;;
74614;SDS011;63121;51.458;-0.110;2023-03-01T10:49:55;0.55;;;0.30;;
74614;SDS011;63121;51.458;-0.110;2023-03-01T10:54:56;0.90;;;0.37;;
74614;SDS011;63121;51.458;-0.110;2023-03-01T10:57:27;1.17;;;0.43;;
74614;SDS011;63121;51.458;-0.110;2023-03-01T11:00:14;0.30;;;0.30;;
74614;SDS011;63121;51.458;-0.110;2023-03-01T11:02:45;3.95;;;0.85;;
74614;SDS011;63121;51.458;-0.110;2023-03-01T11:07:50;1.38;;;0.70;;
74614;SDS011;63121;51.458;-0.110;2023-03-01T11:10:25;1.58;;;0.65;;
74614;SDS011;63121;51.458;-0.110;2023-03-01T11:12:51;1.92;;;0.70;;
74614;SDS011;63121;51.458;-0.110;2023-03-01T11:15:25;1.08;;;0.80;;
74614;SDS011;63121;51.458;-0.110;2023-03-01T11:17:53;3.60;;;0.80;;
74614;SDS011;63121;51.458;-0.110;2023-03-01T11:20:24;1.80;;;0.70;;
74614;SDS011;63121;51.458;-0.110;2023-03-01T11:22:59;1.75;;;0.60;;
74614;SDS011;63121;51.458;-0.110;2023-03-01T11:25:35;1.63;;;0.63;;
74614;SDS011;63121;51.458;-0.110;2023-03-01T11:28:04;2.75;;;0.73;;
74614;SDS011;63121;51.458;-0.110;2023-03-01T11:30:38;0.77;;;0.55;;
74614;SDS011;63121;51.458;-0.110;2023-03-01T11:36:07;1.55;;;0.70;;
74614;SDS011;63121;51.458;-0.110;2023-03-01T11:38:40;1.40;;;0.60;;
74614;SDS011;63121;51.458;-0.110;2023-03-01T11:41:08;1.55;;;0.70;;
74614;SDS011;63121;51.458;-0.110;2023-03-01T11:43:58;1.17;;;0.40;;
74614;SDS011;63121;51.458;-0.110;2023-03-01T11:59:59;2.63;;;0.88;;
74614;SDS011;63121;51.458;-0.110;2023-03-01T12:05:22;3.33;;;1.08;;
74614;SDS011;63121;51.458;-0.110;2023-03-01T12:08:41;2.90;;;0.88;;
74614;SDS011;63121;51.458;-0.110;2023-03-01T12:14:17;6.55;;;1.40;;
74614;SDS011;63121;51.458;-0.110;2023-03-01T12:19:37;2.97;;;1.00;;
74614;SDS011;63121;51.458;-0.110;2023-03-01T12:24:54;4.20;;;1.20;;
74614;SDS011;63121;51.458;-0.110;2023-03-01T12:33:00;2.95;;;1.10;;
74614;SDS011;63121;51.458;-0.110;2023-03-01T12:35:48;3.75;;;1.10;;
74614;SDS011;63121;51.458;-0.110;2023-03-01T12:41:28;3.17;;;1.10;;
74614;SDS011;63121;51.458;-0.110;2023-03-01T12:44:01;9.95;;;1.00;;
74614;SDS011;63121;51.458;-0.110;2023-03-01T12:49:08;2.17;;;0.93;;
74614;SDS011;63121;51.458;-0.110;2023-03-01T12:51:39;4.40;;;1.05;;
74614;SDS011;63121;51.458;-0.110;2023-03-01T12:54:20;3.28;;;1.02;;
74614;SDS011;63121;51.458;-0.110;2023-03-01T12:56:52;3.17;;;0.90;;
74614;SDS011;63121;51.458;-0.110;2023-03-01T12:59:24;4.68;;;1.30;;
74614;SDS011;63121;51.458;-0.110;2023-03-01T13:02:26;2.25;;;0.88;;
74614;SDS011;63121;51.458;-0.110;2023-03-01T13:05:05;4.25;;;1.02;;
74614;SDS011;63121;51.458;-0.110;2023-03-01T13:07:59;4.55;;;1.33;;
74614;SDS011;63121;51.458;-0.110;2023-03-01T13:10:34;4.40;;;1.27;;
74614;SDS011;63121;51.458;-0.110;2023-03-01T13:13:27;4.53;;;1.30;;
74614;SDS011;63121;51.458;-0.110;2023-03-01T13:15:53;5.70;;;1.15;;
74614;SDS011;63121;51.458;-0.110;2023-03-01T13:23:23;1.48;;;0.73;;
74614;SDS011;63121;51.458;-0.110;2023-03-01T13:31:54;3.50;;;1.10;;
74614;SDS011;63121;51.458;-0.110;2023-03-01T13:33:56;2.92;;;1.05;;
74614;SDS011;63121;51.458;-0.110;2023-03-01T13:46:42;4.15;;;0.80;;
74614;SDS011;63121;51.458;-0.110;2023-03-01T13:49:11;2.00;;;0.90;;
74614;SDS011;63121;51.458;-0.110;2023-03-01T13:51:41;4.75;;;0.98;;
74614;SDS011;63121;51.458;-0.110;2023-03-01T13:54:09;2.90;;;0.93;;
74614;SDS011;63121;51.458;-0.110;2023-03-01T13:56:37;1.67;;;0.80;;
74614;SDS011;63121;51.458;-0.110;2023-03-01T14:01:43;2.90;;;0.90;;
74614;SDS011;63121;51.458;-0.110;2023-03-01T14:09:34;3.40;;;1.00;;
74614;SDS011;63121;51.458;-0.110;2023-03-01T14:15:06;4.18;;;1.13;;
74614;SDS011;63121;51.458;-0.110;2023-03-01T14:20:22;2.47;;;0.82;;
74614;SDS011;63121;51.458;-0.110;2023-03-01T14:22:50;2.88;;;1.13;;
74614;SDS011;63121;51.458;-0.110;2023-03-01T14:30:47;3.58;;;0.75;;
74614;SDS011;63121;51.458;-0.110;2023-03-01T14:33:26;3.13;;;1.02;;
74614;SDS011;63121;51.458;-0.110;2023-03-01T14:36:02;2.65;;;0.95;;
74614;SDS011;63121;51.458;-0.110;2023-03-01T14:41:07;2.15;;;0.75;;
74614;SDS011;63121;51.458;-0.110;2023-03-01T14:43:41;3.28;;;0.68;;
74614;SDS011;63121;51.458;-0.110;2023-03-01T14:46:19;0.57;;;0.57;;
74614;SDS011;63121;51.458;-0.110;2023-03-01T14:48:49;1.05;;;0.50;;
74614;SDS011;63121;51.458;-0.110;2023-03-01T14:51:20;1.05;;;0.65;;
74614;SDS011;63121;51.458;-0.110;2023-03-01T14:53:46;1.98;;;0.60;;
74614;SDS011;63121;51.458;-0.110;2023-03-01T14:56:13;1.65;;;0.63;;
74614;SDS011;63121;51.458;-0.110;2023-03-01T14:58:42;1.40;;;0.75;;
74614;SDS011;63121;51.458;-0.110;2023-03-01T15:01:10;3.92;;;1.00;;
74614;SDS011;63121;51.458;-0.110;2023-03-01T15:03:42;3.80;;;0.80;;
74614;SDS011;63121;51.458;-0.110;2023-03-01T15:06:11;3.15;;;0.90;;
74614;SDS011;63121;51.458;-0.110;2023-03-01T15:08:41;4.00;;;1.10;;
74614;SDS011;63121;51.458;-0.110;2023-03-01T15:13:49;2.95;;;1.05;;
74614;SDS011;63121;51.458;-0.110;2023-03-01T15:16:19;3.70;;;0.90;;
74614;SDS011;63121;51.458;-0.110;2023-03-01T15:19:15;3.38;;;1.02;;
74614;SDS011;63121;51.458;-0.110;2023-03-01T15:24:19;3.58;;;1.08;;
74614;SDS011;63121;51.458;-0.110;2023-03-01T15:26:52;2.70;;;0.90;;
74614;SDS011;63121;51.458;-0.110;2023-03-01T15:29:23;3.97;;;1.10;;
74614;SDS011;63121;51.458;-0.110;2023-03-01T15:34:28;2.63;;;0.80;;
74614;SDS011;63121;51.458;-0.110;2023-03-01T15:36:55;3.75;;;1.00;;
74614;SDS011;63121;51.458;-0.110;2023-03-01T15:41:52;3.65;;;0.90;;
74614;SDS011;63121;51.458;-0.110;2023-03-01T15:44:23;5.65;;;1.05;;
74614;SDS011;63121;51.458;-0.110;2023-03-01T15:46:52;1.85;;;0.70;;
74614;SDS011;63121;51.458;-0.110;2023-03-01T15:51:50;1.88;;;0.77;;
74614;SDS011;63121;51.458;-0.110;2023-03-01T15:54:19;1.95;;;0.85;;
74614;SDS011;63121;51.458;-0.110;2023-03-01T15:56:47;3.15;;;0.95;;
74614;SDS011;63121;51.458;-0.110;2023-03-01T15:59:13;4.47;;;0.80;;
74614;SDS011;63121;51.458;-0.110;2023-03-01T16:01:39;1.17;;;0.77;;
74614;SDS011;63121;51.458;-0.110;2023-03-01T16:04:14;2.63;;;0.90;;
74614;SDS011;63121;51.458;-0.110;2023-03-01T16:06:54;2.38;;;0.90;;
74614;SDS011;63121;51.458;-0.110;2023-03-01T16:09:24;1.80;;;0.77;;
74614;SDS011;63121;51.458;-0.110;2023-03-01T16:11:50;2.47;;;0.90;;
74614;SDS011;63121;51.458;-0.110;2023-03-01T16:14:17;2.22;;;1.00;;
74614;SDS011;63121;51.458;-0.110;2023-03-01T16:16:42;3.05;;;1.00;;
74614;SDS011;63121;51.458;-0.110;2023-03-01T16:19:09;5.68;;;0.98;;
74614;SDS011;63121;51.458;-0.110;2023-03-01T16:21:35;2.55;;;1.00;;
74614;SDS011;63121;51.458;-0.110;2023-03-01T16:24:01;3.08;;;0.90;;
74614;SDS011;63121;51.458;-0.110;2023-03-01T16:26:26;2.33;;;1.08;;
74614;SDS011;63121;51.458;-0.110;2023-03-01T16:28:54;4.93;;;1.20;;
74614;SDS011;63121;51.458;-0.110;2023-03-01T16:31:21;3.67;;;1.10;;
74614;SDS011;63121;51.458;-0.110;2023-03-01T16:33:47;2.97;;;0.88;;
74614;SDS011;63121;51.458;-0.110;2023-03-01T16:36:15;1.63;;;0.85;;
74614;SDS011;63121;51.458;-0.110;2023-03-01T16:38:42;4.60;;;1.08;;
74614;SDS011;63121;51.458;-0.110;2023-03-01T16:41:11;2.13;;;0.80;;
74614;SDS011;63121;51.458;-0.110;2023-03-01T16:43:38;3.40;;;0.93;;
74614;SDS011;63121;51.458;-0.110;2023-03-01T16:46:26;3.10;;;0.93;;
74614;SDS011;63121;51.458;-0.110;2023-03-01T16:48:53;2.25;;;0.80;;
74614;SDS011;63121;51.458;-0.110;2023-03-01T16:51:18;3.22;;;1.00;;
74614;SDS011;63121;51.458;-0.110;2023-03-01T16:53:44;3.00;;;0.95;;
74614;SDS011;63121;51.458;-0.110;2023-03-01T16:56:11;3.63;;;1.40;;
74614;SDS011;63121;51.458;-0.110;2023-03-01T16:58:37;3.28;;;1.17;;
74614;SDS011;63121;51.458;-0.110;2023-03-01T17:01:06;5.90;;;1.55;;
74614;SDS011;63121;51.458;-0.110;2023-03-01T17:03:35;3.03;;;1.00;;
74614;SDS011;63121;51.458;-0.110;2023-03-01T17:06:05;3.67;;;1.08;;
74614;SDS011;63121;51.458;-0.110;2023-03-01T17:08:32;5.15;;;1.20;;